createdAt,value
2023-04-22T00:01:47.167Z,25.40
2023-04-22T00:04:17.017Z,19.52
2023-04-22T00:06:47.099Z,19.52
2023-04-22T00:09:16.790Z,21.08
2023-04-22T00:11:46.394Z,29.27
2023-04-22T00:14:16.057Z,29.55
2023-04-22T00:16:45.793Z,26.35
2023-04-22T00:19:15.400Z,18.20
2023-04-22T00:21:45.079Z,22.88
2023-04-22T00:24:14.689Z,27.88
2023-04-22T00:26:44.349Z,26.35
2023-04-22T00:29:13.942Z,22.63
2023-04-22T00:31:43.619Z,17.25
2023-04-22T00:34:13.200Z,9.90
2023-04-22T00:36:42.778Z,8.55
2023-04-22T00:39:13.520Z,21.50
2023-04-22T00:41:43.420Z,14.57
2023-04-22T00:44:14.065Z,25.13
2023-04-22T00:46:43.791Z,16.17
2023-04-22T00:49:13.399Z,24.80
2023-04-22T00:51:42.977Z,37.60
2023-04-22T00:54:12.539Z,26.42
2023-04-22T00:56:42.489Z,19.98
2023-04-22T00:59:12.614Z,19.75
2023-04-22T01:01:42.300Z,14.02
2023-04-22T01:04:14.425Z,24.70
2023-04-22T01:06:46.358Z,24.60
2023-04-22T01:09:16.782Z,20.05
2023-04-22T01:11:46.830Z,19.73
2023-04-22T01:14:16.945Z,20.20
2023-04-22T01:16:47.238Z,19.50
2023-04-22T01:19:17.113Z,21.45
2023-04-22T01:21:47.565Z,22.42
2023-04-22T01:24:17.377Z,18.33
2023-04-22T01:26:47.595Z,27.40
2023-04-22T01:29:18.107Z,35.58
2023-04-22T01:31:48.415Z,20.52
2023-04-22T01:34:18.047Z,25.63
2023-04-22T01:36:47.683Z,18.08
2023-04-22T01:39:17.288Z,20.25
2023-04-22T01:41:47.486Z,24.08
2023-04-22T01:44:17.815Z,18.30
2023-04-22T01:46:48.073Z,20.15
2023-04-22T01:49:17.738Z,27.13
2023-04-22T01:51:47.470Z,21.75
2023-04-22T01:54:18.180Z,18.63
2023-04-22T01:56:56.579Z,14.98
2023-04-22T01:59:26.362Z,21.65
2023-04-22T02:01:56.044Z,23.55
2023-04-22T02:04:25.786Z,17.92
2023-04-22T02:06:55.459Z,16.25
2023-04-22T02:09:25.073Z,15.95
2023-04-22T02:11:54.641Z,16.38
2023-04-22T02:14:24.152Z,14.65
2023-04-22T02:16:54.623Z,15.88
2023-04-22T02:19:24.218Z,20.27
2023-04-22T02:21:53.859Z,18.80
2023-04-22T02:24:23.468Z,17.00
2023-04-22T02:26:53.274Z,23.33
2023-04-22T02:29:23.024Z,24.38
2023-04-22T02:31:52.820Z,21.52
2023-04-22T02:34:22.411Z,19.35
2023-04-22T02:36:52.094Z,14.85
2023-04-22T02:39:21.785Z,17.67
2023-04-22T02:41:51.510Z,18.05
2023-04-22T02:44:23.463Z,24.75
2023-04-22T02:46:53.062Z,15.65
2023-04-22T02:49:22.706Z,15.05
2023-04-22T02:51:52.313Z,13.95
2023-04-22T02:54:22.019Z,21.05
2023-04-22T02:56:51.587Z,15.70
2023-04-22T02:59:21.243Z,18.70
2023-04-22T03:01:50.814Z,21.70
2023-04-22T03:04:23.394Z,17.77
2023-04-22T03:06:53.168Z,16.73
2023-04-22T03:09:22.806Z,15.00
2023-04-22T03:11:52.371Z,11.65
2023-04-22T03:14:22.225Z,17.45
2023-04-22T03:16:51.944Z,22.67
2023-04-22T03:19:21.743Z,15.38
2023-04-22T03:21:51.313Z,17.55
2023-04-22T03:24:20.887Z,16.30
2023-04-22T03:26:50.508Z,17.52
2023-04-22T03:29:20.066Z,13.50
2023-04-22T03:31:49.744Z,14.02
2023-04-22T03:34:19.448Z,18.08
2023-04-22T03:36:49.009Z,21.25
2023-04-22T03:39:18.571Z,12.25
2023-04-22T03:41:48.256Z,20.35
2023-04-22T03:44:17.847Z,29.73
2023-04-22T03:46:47.500Z,8.35
2023-04-22T03:49:17.521Z,26.52
2023-04-22T03:51:47.176Z,13.32
2023-04-22T03:54:16.769Z,17.58
2023-04-22T03:56:46.403Z,18.08
2023-04-22T03:59:16.002Z,10.02
2023-04-22T04:01:48.468Z,22.05
2023-04-22T04:04:18.300Z,17.70
2023-04-22T04:06:48.379Z,18.38
2023-04-22T04:09:18.021Z,17.35
2023-04-22T04:11:47.622Z,18.67
2023-04-22T04:14:17.257Z,18.90
2023-04-22T04:16:47.089Z,16.63
2023-04-22T04:19:16.806Z,13.32
2023-04-22T04:21:46.941Z,20.88
2023-04-22T04:24:16.600Z,16.15
2023-04-22T04:26:46.189Z,11.90
2023-04-22T04:29:15.968Z,17.20
2023-04-22T04:31:45.535Z,9.30
2023-04-22T04:34:15.538Z,19.17
2023-04-22T04:36:45.289Z,17.15
2023-04-22T04:39:18.875Z,22.33
2023-04-22T04:41:50.530Z,20.40
2023-04-22T04:44:20.192Z,18.13
2023-04-22T04:46:50.209Z,13.38
2023-04-22T04:49:19.775Z,16.98
2023-04-22T04:51:49.386Z,15.13
2023-04-22T04:54:19.118Z,11.27
2023-04-22T04:56:48.750Z,10.65
2023-04-22T04:59:18.748Z,8.45
2023-04-22T05:01:48.522Z,14.80
2023-04-22T05:04:18.317Z,15.48
2023-04-22T05:06:48.144Z,15.55
2023-04-22T05:09:17.716Z,17.85
2023-04-22T05:11:47.382Z,14.85
2023-04-22T05:14:16.969Z,11.40
2023-04-22T05:16:46.668Z,21.05
2023-04-22T05:19:16.280Z,16.60
2023-04-22T05:21:45.877Z,12.80
2023-04-22T05:24:15.652Z,14.57
2023-04-22T05:26:45.294Z,15.80
2023-04-22T05:29:14.864Z,21.70
2023-04-22T05:31:44.597Z,14.48
2023-04-22T05:34:14.310Z,17.95
2023-04-22T05:36:44.078Z,14.48
2023-04-22T05:39:14.546Z,14.30
2023-04-22T05:41:46.680Z,15.48
2023-04-22T05:44:16.638Z,17.48
2023-04-22T05:46:46.333Z,17.10
2023-04-22T05:49:15.961Z,15.88
2023-04-22T05:51:45.573Z,25.27
2023-04-22T05:54:15.177Z,21.80
2023-04-22T05:56:44.925Z,15.88
2023-04-22T05:59:14.527Z,14.75
2023-04-22T06:01:44.359Z,9.98
2023-04-22T06:04:14.443Z,17.88
2023-04-22T06:06:44.207Z,9.80
2023-04-22T06:09:13.740Z,14.68
2023-04-22T06:11:43.422Z,10.80
2023-04-22T06:14:13.873Z,16.27
2023-04-22T06:16:44.134Z,13.55
2023-04-22T06:19:13.781Z,10.40
2023-04-22T06:21:44.163Z,11.48
2023-04-22T06:24:13.783Z,11.40
2023-04-22T06:26:43.504Z,12.98
2023-04-22T06:29:13.216Z,6.00
2023-04-22T06:31:42.844Z,20.50
2023-04-22T06:34:12.556Z,10.77
2023-04-22T06:36:42.427Z,23.27
2023-04-22T06:39:12.644Z,12.35
2023-04-22T06:41:42.679Z,14.02
2023-04-22T06:44:12.770Z,15.50
2023-04-22T06:46:42.395Z,11.23
2023-04-22T06:49:12.114Z,11.45
2023-04-22T06:51:41.714Z,10.80
2023-04-22T06:54:11.356Z,10.52
2023-04-22T06:56:41.104Z,10.18
2023-04-22T06:59:10.788Z,11.68
2023-04-22T07:01:40.577Z,13.02
2023-04-22T07:04:10.159Z,17.73
2023-04-22T07:06:39.824Z,10.40
2023-04-22T07:09:09.565Z,13.40
2023-04-22T07:11:39.130Z,11.20
2023-04-22T07:14:08.704Z,10.82
2023-04-22T07:16:38.322Z,15.45
2023-04-22T07:19:07.888Z,9.63
2023-04-22T07:21:37.429Z,8.02
2023-04-22T07:24:07.614Z,7.28
2023-04-22T07:26:37.412Z,13.95
2023-04-22T07:29:07.194Z,10.45
2023-04-22T07:31:38.757Z,12.07
2023-04-22T07:34:08.511Z,16.27
2023-04-22T07:36:38.506Z,8.15
2023-04-22T07:39:08.232Z,10.32
2023-04-22T07:41:37.994Z,8.55
2023-04-22T07:44:07.566Z,13.30
2023-04-22T07:46:37.227Z,10.30
2023-04-22T07:49:06.854Z,9.45
2023-04-22T07:51:37.073Z,10.20
2023-04-22T07:54:06.695Z,17.60
2023-04-22T07:56:36.812Z,12.73
2023-04-22T07:59:07.458Z,13.38
2023-04-22T08:01:37.096Z,10.68
2023-04-22T08:04:07.039Z,9.57
2023-04-22T08:06:36.837Z,8.52
2023-04-22T08:09:06.452Z,13.52
2023-04-22T08:11:36.049Z,9.63
2023-04-22T08:14:05.644Z,11.32
2023-04-22T08:16:35.274Z,11.40
2023-04-22T08:19:04.850Z,14.73
2023-04-22T08:21:34.566Z,11.27
2023-04-22T08:24:04.185Z,9.50
2023-04-22T08:26:33.878Z,13.50
2023-04-22T08:29:03.712Z,9.90
2023-04-22T08:31:33.586Z,11.30
2023-04-22T08:34:03.413Z,13.93
2023-04-22T08:36:33.856Z,11.57
2023-04-22T08:39:03.949Z,8.90
2023-04-22T08:41:37.489Z,8.05
2023-04-22T08:46:37.622Z,8.90
2023-04-22T08:49:07.322Z,11.60
2023-04-22T08:51:38.234Z,8.13
2023-04-22T08:54:08.023Z,5.95
2023-04-22T08:56:38.682Z,11.32
2023-04-22T08:59:08.597Z,6.47
2023-04-22T09:01:39.704Z,14.65
2023-04-22T09:04:11.637Z,8.10
2023-04-22T09:06:42.020Z,14.43
2023-04-22T09:09:11.589Z,10.15
2023-04-22T09:11:41.376Z,11.23
2023-04-22T09:14:10.979Z,15.10
2023-04-22T09:16:48.610Z,8.68
2023-04-22T09:19:18.571Z,6.57
2023-04-22T09:21:49.573Z,17.17
2023-04-22T09:24:22.258Z,12.95
2023-04-22T09:26:51.923Z,7.72
2023-04-22T09:29:21.542Z,10.45
2023-04-22T09:31:52.674Z,5.63
2023-04-22T09:34:24.398Z,22.45
2023-04-22T09:36:54.426Z,11.27
2023-04-22T09:39:26.143Z,9.45
2023-04-22T09:41:58.157Z,13.05
2023-04-22T09:44:30.348Z,8.13
2023-04-22T09:47:01.102Z,11.48
2023-04-22T09:49:30.941Z,6.05
2023-04-22T09:52:00.568Z,15.60
2023-04-22T09:54:30.129Z,13.93
2023-04-22T09:57:00.258Z,14.82
2023-04-22T09:59:33.075Z,14.85
2023-04-22T10:02:08.722Z,16.42
2023-04-22T10:04:38.579Z,13.27
2023-04-22T10:07:08.568Z,17.30
2023-04-22T10:09:38.378Z,18.85
2023-04-22T10:12:08.166Z,10.15
2023-04-22T10:14:37.760Z,13.55
2023-04-22T10:17:08.613Z,8.57
2023-04-22T10:19:39.407Z,10.63
2023-04-22T10:22:12.633Z,17.10
2023-04-22T10:24:43.661Z,17.05
2023-04-22T10:27:13.526Z,11.07
2023-04-22T10:29:44.709Z,22.30
2023-04-22T10:32:20.114Z,10.95
2023-04-22T10:34:51.503Z,11.20
2023-04-22T10:37:23.138Z,9.73
2023-04-22T10:40:21.861Z,10.57
2023-04-22T10:42:57.415Z,15.23
2023-04-22T10:45:28.226Z,11.95
2023-04-22T10:47:57.970Z,14.13
2023-04-22T10:50:29.730Z,9.23
2023-04-22T10:53:22.981Z,9.90
2023-04-22T10:55:55.433Z,12.10
2023-04-22T10:58:27.010Z,12.25
2023-04-22T11:01:04.616Z,10.05
2023-04-22T11:03:34.567Z,10.80
2023-04-22T11:06:27.997Z,12.30
2023-04-22T11:09:13.054Z,9.50
2023-04-22T11:11:42.798Z,14.43
2023-04-22T11:14:13.027Z,11.60
2023-04-22T11:16:49.495Z,10.50
2023-04-22T11:19:19.429Z,11.93
2023-04-22T11:21:51.070Z,15.35
2023-04-22T11:24:22.138Z,14.02
2023-04-22T11:26:51.838Z,11.15
2023-04-22T11:29:21.452Z,9.07
2023-04-22T11:31:51.858Z,6.28
2023-04-22T11:34:21.491Z,8.10
2023-04-22T11:36:51.320Z,9.27
2023-04-22T11:39:20.896Z,9.30
2023-04-22T11:41:50.444Z,10.60
2023-04-22T11:44:19.995Z,12.77
2023-04-22T11:46:49.544Z,9.40
2023-04-22T11:49:21.122Z,8.88
2023-04-22T11:51:58.687Z,12.52
2023-04-22T11:54:39.007Z,12.90
2023-04-22T11:57:10.889Z,20.80
2023-04-22T11:59:41.309Z,12.48
2023-04-22T12:02:12.038Z,11.95
2023-04-22T12:04:42.927Z,9.98
2023-04-22T12:07:13.198Z,7.30
2023-04-22T12:09:42.782Z,10.23
2023-04-22T12:12:12.410Z,8.93
2023-04-22T12:14:42.060Z,10.50
2023-04-22T12:17:13.543Z,8.43
2023-04-22T12:19:43.314Z,13.38
2023-04-22T12:22:12.940Z,11.38
2023-04-22T12:24:48.027Z,11.50
2023-04-22T12:27:18.099Z,17.08
2023-04-22T12:29:55.977Z,11.35
2023-04-22T12:32:28.058Z,17.55
2023-04-22T12:34:57.788Z,19.48
2023-04-22T12:37:28.364Z,16.10
2023-04-22T12:39:57.950Z,10.35
2023-04-22T12:42:27.586Z,12.35
2023-04-22T12:44:57.179Z,6.60
2023-04-22T12:47:26.819Z,10.73
2023-04-22T12:49:56.455Z,11.63
2023-04-22T12:52:26.090Z,9.30
2023-04-22T12:54:55.677Z,14.23
2023-04-22T12:57:25.523Z,13.65
2023-04-22T12:59:55.117Z,9.77
2023-04-22T13:02:24.848Z,10.88
2023-04-22T13:04:54.639Z,10.93
2023-04-22T13:07:24.316Z,15.05
2023-04-22T13:09:53.948Z,6.25
2023-04-22T13:12:23.514Z,13.15
2023-04-22T13:14:53.024Z,15.48
2023-04-22T13:17:23.387Z,15.70
2023-04-22T13:19:53.258Z,14.15
2023-04-22T13:22:22.911Z,16.02
2023-04-22T13:24:52.521Z,19.52
2023-04-22T13:27:22.263Z,17.63
2023-04-22T13:29:51.880Z,18.85
2023-04-22T13:32:21.588Z,13.43
2023-04-22T13:34:51.651Z,13.57
2023-04-22T13:37:22.870Z,18.80
2023-04-22T13:39:52.637Z,17.05
2023-04-22T13:42:22.360Z,9.35
2023-04-22T13:44:52.076Z,15.45
2023-04-22T13:47:22.259Z,18.65
2023-04-22T13:49:51.910Z,17.50
2023-04-22T13:52:21.595Z,17.88
2023-04-22T13:54:51.163Z,17.48
2023-04-22T13:57:21.961Z,15.98
2023-04-22T13:59:54.561Z,13.82
2023-04-22T14:02:24.292Z,17.80
2023-04-22T14:04:54.040Z,15.43
2023-04-22T14:07:23.626Z,15.75
2023-04-22T14:09:53.264Z,13.88
2023-04-22T14:12:22.851Z,10.52
2023-04-22T14:14:52.501Z,14.20
2023-04-22T14:17:23.570Z,15.10
2023-04-22T14:19:53.884Z,11.35
2023-04-22T14:22:23.457Z,12.05
2023-04-22T14:24:52.982Z,20.05
2023-04-22T14:27:22.686Z,12.98
2023-04-22T14:29:55.473Z,12.45
2023-04-22T14:32:26.611Z,10.87
2023-04-22T14:34:56.227Z,9.18
2023-04-22T14:37:25.940Z,16.15
2023-04-22T14:39:55.529Z,18.63
2023-04-22T14:42:25.893Z,13.02
2023-04-22T14:44:55.633Z,9.18
2023-04-22T14:47:25.350Z,14.45
2023-04-22T14:49:55.031Z,13.70
2023-04-22T14:52:24.918Z,13.93
2023-04-22T14:54:54.558Z,12.52
2023-04-22T14:57:24.168Z,11.23
2023-04-22T14:59:53.775Z,13.38
2023-04-22T15:02:23.638Z,12.00
2023-04-22T15:04:53.793Z,10.45
2023-04-22T15:07:23.385Z,14.82
2023-04-22T15:09:53.170Z,14.18
2023-04-22T15:12:22.735Z,16.20
2023-04-22T15:14:52.334Z,14.68
2023-04-22T15:17:22.575Z,16.80
2023-04-22T15:19:54.730Z,14.55
2023-04-22T15:22:24.271Z,9.48
2023-04-22T15:24:54.189Z,12.48
2023-04-22T15:27:23.892Z,17.50
2023-04-22T15:29:53.921Z,17.15
2023-04-22T15:32:23.821Z,15.45
2023-04-22T15:34:53.404Z,14.48
2023-04-22T15:37:23.012Z,14.40
2023-04-22T15:39:52.607Z,9.93
2023-04-22T15:42:22.246Z,23.45
2023-04-22T15:44:52.025Z,12.52
2023-04-22T15:47:21.781Z,13.40
2023-04-22T15:49:51.878Z,9.73
2023-04-22T15:52:21.555Z,18.75
2023-04-22T15:54:51.385Z,7.80
2023-04-22T15:57:21.448Z,14.60
2023-04-22T15:59:59.278Z,14.85
2023-04-22T16:02:38.042Z,15.13
2023-04-22T16:05:08.387Z,15.27
2023-04-22T16:07:37.998Z,16.25
2023-04-22T16:10:08.182Z,12.73
2023-04-22T16:12:37.777Z,14.88
2023-04-22T16:15:08.503Z,21.13
2023-04-22T16:17:38.967Z,20.27
2023-04-22T16:20:09.401Z,23.45
2023-04-22T16:22:38.980Z,20.02
2023-04-22T16:25:09.325Z,11.20
2023-04-22T16:27:38.926Z,18.10
2023-04-22T16:30:09.101Z,16.17
2023-04-22T16:32:38.816Z,15.68
2023-04-22T16:35:09.172Z,21.73
2023-04-22T16:37:38.794Z,12.55
2023-04-22T16:40:10.332Z,12.80
2023-04-22T16:42:39.978Z,13.90
2023-04-22T16:45:10.089Z,15.07
2023-04-22T16:47:39.799Z,11.05
2023-04-22T16:50:13.708Z,13.57
2023-04-22T16:52:43.513Z,22.23
2023-04-22T16:55:13.177Z,12.57
2023-04-22T16:57:42.771Z,17.30
2023-04-22T17:00:12.740Z,15.57
2023-04-22T17:02:42.430Z,14.88
2023-04-22T17:05:12.262Z,13.57
2023-04-22T17:07:42.088Z,18.48
2023-04-22T17:10:11.871Z,12.40
2023-04-22T17:12:41.550Z,11.68
2023-04-22T17:15:11.425Z,15.32
2023-04-22T17:17:40.992Z,13.43
2023-04-22T17:20:10.916Z,17.23
2023-04-22T17:22:40.666Z,15.13
2023-04-22T17:25:10.733Z,11.32
2023-04-22T17:27:40.342Z,11.32
2023-04-22T17:30:10.429Z,14.73
2023-04-22T17:32:40.105Z,17.85
2023-04-22T17:35:10.318Z,16.23
2023-04-22T17:37:39.925Z,16.10
2023-04-22T17:40:10.728Z,17.40
2023-04-22T17:42:45.760Z,11.73
2023-04-22T17:45:16.107Z,17.20
2023-04-22T17:47:45.778Z,32.00
2023-04-22T17:50:15.393Z,19.70
2023-04-22T17:52:45.843Z,13.82
2023-04-22T17:55:15.433Z,15.13
2023-04-22T17:57:45.087Z,18.67
2023-04-22T18:00:19.619Z,16.92
2023-04-22T18:02:49.526Z,15.95
2023-04-22T18:05:19.224Z,14.43
2023-04-22T18:07:49.032Z,16.00
2023-04-22T18:10:18.680Z,15.48
2023-04-22T18:12:48.255Z,18.85
2023-04-22T18:15:17.969Z,20.45
2023-04-22T18:17:47.747Z,21.17
2023-04-22T18:20:19.133Z,15.07
2023-04-22T18:22:50.554Z,21.77
2023-04-22T18:25:20.351Z,25.00
2023-04-22T18:27:52.019Z,19.55
2023-04-22T18:30:21.797Z,22.00
2023-04-22T18:32:52.266Z,18.63
2023-04-22T18:35:22.355Z,19.35
2023-04-22T18:37:51.990Z,19.77
2023-04-22T18:40:22.672Z,25.15
2023-04-22T18:42:52.352Z,31.05
2023-04-22T18:45:24.368Z,29.67
2023-04-22T18:47:54.249Z,35.97
2023-04-22T18:50:23.940Z,16.80
2023-04-22T18:52:53.522Z,34.00
2023-04-22T18:55:23.185Z,19.13
2023-04-22T18:57:53.082Z,19.88
2023-04-22T19:00:23.262Z,23.35
2023-04-22T19:02:53.102Z,29.15
2023-04-22T19:05:23.584Z,15.43
2023-04-22T19:07:53.659Z,22.23
2023-04-22T19:10:23.609Z,27.67
2023-04-22T19:12:54.439Z,25.33
2023-04-22T19:15:24.038Z,29.63
2023-04-22T19:17:53.737Z,25.15
2023-04-22T19:20:23.395Z,22.08
2023-04-22T19:22:53.050Z,23.58
2023-04-22T19:25:22.946Z,27.92
2023-04-22T19:27:52.684Z,33.70
2023-04-22T19:30:24.452Z,22.50
2023-04-22T19:32:56.348Z,25.58
2023-04-22T19:35:26.431Z,19.40
2023-04-22T19:37:56.043Z,29.10
2023-04-22T19:40:25.671Z,25.98
2023-04-22T19:42:56.339Z,22.98
2023-04-22T19:45:26.408Z,17.35
2023-04-22T19:47:56.431Z,19.85
2023-04-22T19:50:26.520Z,22.92
2023-04-22T19:53:06.099Z,24.52
2023-04-22T19:55:37.655Z,18.88
2023-04-22T19:58:08.277Z,22.95
2023-04-22T20:00:38.778Z,20.27
2023-04-22T20:03:08.797Z,19.85
2023-04-22T20:05:39.268Z,21.08
2023-04-22T20:08:10.927Z,21.70
2023-04-22T20:10:40.628Z,19.63
2023-04-22T20:13:11.020Z,23.52
2023-04-22T20:15:40.882Z,18.05
2023-04-22T20:18:10.858Z,15.73
2023-04-22T20:20:47.882Z,20.52
2023-04-22T20:23:19.479Z,24.30
2023-04-22T20:25:49.500Z,18.65
2023-04-22T20:28:19.680Z,10.93
2023-04-22T20:30:49.512Z,17.20
2023-04-22T20:33:20.730Z,17.90
2023-04-22T20:35:52.463Z,17.30
2023-04-22T20:38:24.020Z,15.40
2023-04-22T20:40:55.031Z,19.63
2023-04-22T20:43:24.706Z,20.10
2023-04-22T20:45:54.282Z,18.63
2023-04-22T20:48:23.878Z,20.75
2023-04-22T20:50:53.529Z,16.13
2023-04-22T20:53:23.687Z,22.30
2023-04-22T20:55:53.279Z,30.17
2023-04-22T20:58:23.615Z,27.00
2023-04-22T21:00:53.191Z,27.25
2023-04-22T21:03:25.329Z,24.20
2023-04-22T21:05:55.600Z,23.65
2023-04-22T21:08:26.950Z,26.65
2023-04-22T21:10:58.461Z,26.25
2023-04-22T21:13:28.926Z,26.35
2023-04-22T21:16:05.864Z,20.40
2023-04-22T21:18:36.433Z,28.00
2023-04-22T21:21:06.930Z,27.30
2023-04-22T21:23:37.387Z,25.15
2023-04-22T21:26:07.966Z,27.70
2023-04-22T21:28:37.974Z,26.10
2023-04-22T21:33:37.319Z,23.00
2023-04-22T21:36:07.197Z,24.75
2023-04-22T21:38:36.820Z,20.25
2023-04-22T21:41:06.443Z,23.27
2023-04-22T21:43:36.046Z,21.58
2023-04-22T21:46:05.647Z,20.13
2023-04-22T21:48:35.268Z,22.55
2023-04-22T21:51:05.565Z,27.00
2023-04-22T21:53:35.437Z,22.58
2023-04-22T21:56:05.166Z,30.65
2023-04-22T21:58:34.849Z,28.30
2023-04-22T22:01:04.526Z,32.75
2023-04-22T22:03:34.355Z,24.08
2023-04-22T22:06:04.440Z,31.40
2023-04-22T22:08:34.212Z,22.75
2023-04-22T22:11:10.659Z,25.00
2023-04-22T22:13:44.603Z,26.15
2023-04-22T22:16:14.191Z,25.50
2023-04-22T22:18:43.789Z,30.85
2023-04-22T22:21:13.942Z,24.90
2023-04-22T22:23:43.524Z,25.30
2023-04-22T22:26:13.161Z,28.17
2023-04-22T22:28:42.741Z,29.15
2023-04-22T22:31:12.343Z,32.25
2023-04-22T22:33:42.004Z,41.65
2023-04-22T22:36:12.050Z,33.63
2023-04-22T22:38:41.696Z,30.60
2023-04-22T22:41:11.668Z,32.13
2023-04-22T22:43:41.914Z,26.02
2023-04-22T22:46:11.865Z,30.98
2023-04-22T22:48:41.544Z,32.55
2023-04-22T22:51:11.794Z,20.17
2023-04-22T22:53:41.840Z,33.72
2023-04-22T22:56:11.442Z,33.90
2023-04-22T22:58:42.259Z,30.15
2023-04-22T23:01:12.261Z,36.17
2023-04-22T23:03:42.359Z,31.45
2023-04-22T23:06:13.271Z,45.38
2023-04-22T23:08:42.891Z,29.25
2023-04-22T23:11:12.635Z,30.23
2023-04-22T23:13:42.682Z,30.13
2023-04-22T23:16:12.336Z,35.35
2023-04-22T23:18:42.466Z,42.88
2023-04-22T23:21:13.602Z,47.92
2023-04-22T23:23:43.300Z,41.35
2023-04-22T23:26:13.445Z,46.22
2023-04-22T23:28:43.207Z,43.47
2023-04-22T23:31:16.044Z,40.30
2023-04-22T23:33:50.204Z,33.25
2023-04-22T23:36:24.662Z,25.73
2023-04-22T23:38:55.644Z,26.25
2023-04-22T23:41:27.247Z,37.60
2023-04-22T23:43:56.886Z,30.25
2023-04-22T23:46:26.689Z,44.72
2023-04-22T23:48:56.927Z,36.67
2023-04-22T23:51:26.578Z,37.65
2023-04-22T23:53:56.143Z,31.13
2023-04-22T23:56:25.964Z,35.92
2023-04-22T23:58:55.884Z,27.00
